createdAt,value
2023-02-17T00:00:13.786Z,1023.23
2023-02-17T00:05:12.118Z,1023.16
2023-02-17T00:10:11.397Z,1023.25
2023-02-17T00:15:10.743Z,1023.14
2023-02-17T11:43:22.799Z,1024.24
2023-02-17T11:48:20.082Z,1024.14
2023-02-17T11:53:19.400Z,1024.20
2023-02-17T11:58:17.765Z,1024.09
2023-02-17T12:03:21.021Z,1024.15
2023-02-17T12:08:18.101Z,1024.12
2023-02-17T12:13:17.426Z,1024.09
2023-02-17T12:18:15.758Z,1024.09
2023-02-17T12:23:16.857Z,1024.10
2023-02-17T12:28:19.286Z,1024.00
2023-02-17T12:33:16.518Z,1024.01
2023-02-17T12:38:12.602Z,1023.97
2023-02-17T12:43:12.935Z,1023.87
2023-02-17T12:48:12.260Z,1023.80
2023-02-17T12:53:11.558Z,1023.71
2023-02-17T12:58:10.870Z,1023.59
2023-02-17T13:03:11.154Z,1023.53
2023-02-17T13:08:08.460Z,1023.60
2023-02-17T13:13:08.786Z,1023.60
2023-02-17T13:18:07.104Z,1023.56
2023-02-17T13:23:06.439Z,1023.50
2023-02-17T13:28:06.572Z,1023.53
2023-02-17T13:33:05.918Z,1023.36
2023-02-17T13:38:04.055Z,1023.37
2023-02-17T13:43:04.393Z,1023.43
2023-02-17T13:48:03.529Z,1023.32
2023-02-17T13:53:02.907Z,1023.38
2023-02-17T13:58:01.051Z,1023.45
2023-02-17T14:03:01.369Z,1023.46
2023-02-17T14:07:59.645Z,1023.55
2023-02-17T14:13:00.154Z,1023.49
2023-02-17T14:18:00.324Z,1023.63
2023-02-17T14:23:03.928Z,1023.62
2023-02-17T14:27:56.766Z,1023.61
2023-02-17T14:32:56.073Z,1023.75
2023-02-17T14:37:55.405Z,1023.72
2023-02-17T14:42:54.761Z,1023.79
2023-02-17T14:47:53.874Z,1023.80
2023-02-17T14:52:53.763Z,1023.78
2023-02-17T14:57:52.721Z,1023.73
2023-02-17T15:02:52.691Z,1023.75
2023-02-17T15:07:51.824Z,1023.75
2023-02-17T15:12:50.568Z,1023.82
2023-02-17T15:17:49.412Z,1023.94
2023-02-17T15:22:48.739Z,1023.80
2023-02-17T15:27:50.119Z,1023.85
2023-02-17T15:32:47.361Z,1023.72
2023-02-17T15:37:47.346Z,1023.77
2023-02-17T15:42:46.688Z,1023.66
2023-02-17T15:47:45.852Z,1023.64
2023-02-17T15:52:43.286Z,1023.60
2023-02-17T15:57:43.563Z,1023.63
2023-02-17T16:02:42.598Z,1023.66
2023-02-17T16:07:42.721Z,1023.58
2023-02-17T16:12:42.371Z,1023.66
2023-02-17T16:17:42.219Z,1023.72
2023-02-17T16:22:40.576Z,1023.71
2023-02-17T16:27:41.030Z,1023.70
2023-02-17T16:32:38.206Z,1023.72
2023-02-17T16:37:37.326Z,1023.74
2023-02-17T16:42:36.718Z,1023.75
2023-02-17T16:47:36.170Z,1023.84
2023-02-17T16:52:35.194Z,1023.84
2023-02-17T16:57:35.165Z,1023.80
2023-02-17T17:02:33.935Z,1023.75
2023-02-17T17:07:32.887Z,1023.69
2023-02-17T17:12:34.383Z,1023.73
2023-02-17T17:17:31.509Z,1023.66
2023-02-17T17:22:30.867Z,1023.66
2023-02-17T17:27:30.006Z,1023.69
2023-02-17T17:32:29.176Z,1023.68
2023-02-17T17:37:29.352Z,1023.68
2023-02-17T17:42:27.307Z,1023.70
2023-02-17T17:47:30.257Z,1023.64
2023-02-17T17:52:26.152Z,1023.60
2023-02-17T17:57:25.305Z,1023.66
2023-02-17T18:02:26.789Z,1023.69
2023-02-17T18:07:24.734Z,1023.82
2023-02-17T18:12:23.030Z,1023.87
2023-02-17T18:17:23.707Z,1023.99
2023-02-17T18:22:22.010Z,1024.05
2023-02-17T18:27:20.969Z,1024.12
2023-02-17T18:32:21.363Z,1023.99
2023-02-17T18:37:19.844Z,1024.05
2023-02-17T18:42:20.109Z,1023.94
2023-02-17T18:47:19.443Z,1023.97
2023-02-17T18:52:17.582Z,1024.07
2023-02-17T18:57:17.868Z,1024.01
2023-02-17T19:02:15.078Z,1023.97
2023-02-17T19:07:15.209Z,1024.16
2023-02-17T19:12:14.544Z,1024.17
2023-02-17T19:17:15.501Z,1024.19
2023-02-17T19:22:12.966Z,1024.13
2023-02-17T19:27:12.245Z,1024.08
2023-02-17T19:32:13.700Z,1023.86
2023-02-17T19:37:10.857Z,1024.04
2023-02-17T19:42:10.211Z,1024.06
2023-02-17T19:47:11.387Z,1024.03
2023-02-17T19:52:08.557Z,1024.07
2023-02-17T19:57:08.734Z,1024.01
2023-02-17T20:02:08.596Z,1024.03
2023-02-17T20:07:06.219Z,1024.02
2023-02-17T20:12:05.435Z,1024.08
2023-02-17T20:17:04.655Z,1024.10
2023-02-17T20:22:02.916Z,1024.26
2023-02-17T20:27:03.672Z,1024.21
2023-02-17T20:32:02.109Z,1024.31
2023-02-17T20:37:01.616Z,1024.39
2023-02-17T20:42:01.251Z,1024.38
2023-02-17T20:47:01.229Z,1024.44
2023-02-17T20:52:03.350Z,1024.34
2023-02-17T20:56:59.727Z,1024.35
2023-02-17T21:01:58.874Z,1024.11
2023-02-17T21:06:57.172Z,1024.31
2023-02-17T21:11:56.410Z,1024.18
2023-02-17T21:16:55.612Z,1024.15
2023-02-17T21:21:55.774Z,1024.15
2023-02-17T21:26:54.044Z,1024.16
2023-02-17T21:31:53.431Z,1024.19
2023-02-17T21:36:52.261Z,1024.33
2023-02-17T21:41:52.608Z,1024.24
2023-02-17T21:46:51.718Z,1024.27
2023-02-17T21:51:50.034Z,1024.23
2023-02-17T21:56:48.636Z,1024.20
2023-02-17T22:01:49.616Z,1024.30
2023-02-17T22:06:48.898Z,1024.33
2023-02-17T22:11:47.223Z,1024.31
2023-02-17T22:16:47.643Z,1024.28
2023-02-17T22:21:46.810Z,1024.41
2023-02-17T22:26:46.125Z,1024.36
2023-02-17T22:31:45.385Z,1024.32
2023-02-17T22:36:43.556Z,1024.21
2023-02-17T22:41:42.892Z,1024.34
2023-02-17T22:46:42.161Z,1024.28
2023-02-17T22:51:41.433Z,1024.31
2023-02-17T22:56:41.726Z,1024.20
2023-02-17T23:01:40.108Z,1024.26
2023-02-17T23:06:40.218Z,1024.36
2023-02-17T23:11:38.551Z,1024.36
2023-02-17T23:16:38.933Z,1024.41
2023-02-17T23:21:36.995Z,1024.40
2023-02-17T23:26:37.313Z,1024.41
2023-02-17T23:31:35.672Z,1024.56
2023-02-17T23:36:34.792Z,1024.31
2023-02-17T23:41:34.119Z,1024.43
2023-02-17T23:46:33.526Z,1024.43
2023-02-17T23:51:33.679Z,1024.51
2023-02-17T23:56:33.041Z,1024.50
